Accueil
METAR-TAF:

METAR-TAF

Aéroports :

Sikeston, Missouri, États-Unis

latitude: 36-53-56N, longitude: 089-33-42W, altitude: 96 m

Observation

Le bulletin a été fait il y a 22 minutes, à 16:55 UTC
Vent 9 kt de nord-ouest avec des rafales jusqu'à 15 kt
Température 0°C
Humidité 43%
Pression 1031 hPa
Visibilité: 16.1 km
Ciel clair

METAR: KSIK 191655Z AUTO 32009G15KT 10SM CLR 00/M11 A3046 RMK AO2

Heure: 11:17 (17:17 UTC)


TAF: absent

Observations et prévisions météorologiques de plus de 4000 aéroports (messages METAR et TAF).

Les stations disponibles sont représentées par des disques jaunes et rouges sur la carte.

Passer la souris dessus pour voir le nom de la station.

Cliquer dessus pour voir les observations et prévisions météorologiques.

Pour changer de carte: cliquez sur les boutons verts avec une croix noire pour zoomer, sur le bouton vert avec un tiret pour effectuer un zoom arrière, ou sur les flèches vertes pour les cartes adjacentes.


METAR-TAF: